Time;durP1;ratioP1;P1;durP2;ratioP2;P2;SDS_P1;SDS_P2;PMS_P1;PMS_P2;Temp;Humidity;BMP_temperature;BMP_pressure;BME280_temperature;BME280_humidity;BME280_pressure;Samples;Min_cycle;Max_cycle;Signal;HPM_P1;HPM_P2
2022/09/22 00:00:41;;;;;;;6.88;6.03;;;;;;;14.38;99.76;101275.22;5092066;28;20032;-84
2022/09/22 00:03:06;;;;;;;6.13;4.95;;;;;;;14.47;98.44;101264.84;5092029;28;20043;-83
2022/09/22 00:05:31;;;;;;;8.93;6.30;;;;;;;13.99;99.83;101269.09;5090587;28;20451;-86
2022/09/22 00:07:57;;;;;;;7.65;6.57;;;;;;;14.34;98.61;101268.47;5091955;28;20024;-84
2022/09/22 00:10:22;;;;;;;7.22;5.72;;;;;;;14.48;97.69;101263.03;5092027;28;20493;-84
2022/09/22 00:12:48;;;;;;;6.68;5.75;;;;;;;14.46;98.27;101264.94;5092099;28;20074;-84
2022/09/22 00:15:14;;;;;;;7.65;5.70;;;;;;;14.54;97.79;101259.13;5091967;28;20035;-84
2022/09/22 00:17:40;;;;;;;7.22;5.90;;;;;;;14.56;97.48;101262.50;5091750;28;20471;-84
2022/09/22 00:20:06;;;;;;;8.27;6.65;;;;;;;14.45;99.68;101260.59;5091964;28;20089;-84
2022/09/22 00:22:32;;;;;;;9.48;7.05;;;;;;;14.49;99.52;101256.78;5092096;28;20024;-86
2022/09/22 00:24:58;;;;;;;9.05;6.38;;;;;;;14.49;99.59;101256.78;5092070;28;20020;-86
2022/09/22 00:27:24;;;;;;;7.78;6.45;;;;;;;14.46;98.93;101252.56;5096091;28;20027;-86
2022/09/22 00:29:50;;;;;;;8.23;5.95;;;;;;;14.54;99.12;101244.09;5095973;28;20023;-84
2022/09/22 00:32:18;;;;;;;6.50;5.57;;;;;;;14.59;98.65;101249.06;5096016;28;20077;-84
2022/09/22 00:34:44;;;;;;;6.22;5.28;;;;;;;14.49;99.00;101248.84;5095965;28;20519;-84
2022/09/22 00:37:11;;;;;;;8.68;6.88;;;;;;;14.27;100.00;101252.16;5095854;28;20024;-84
2022/09/22 00:39:36;;;;;;;7.57;5.85;;;;;;;14.35;99.61;101249.84;5094776;28;20027;-84
2022/09/22 00:42:03;;;;;;;7.25;5.57;;;;;;;14.33;100.00;101242.97;5095880;28;20384;-84
2022/09/22 00:44:28;;;;;;;7.43;5.75;;;;;;;14.27;100.00;101241.59;5095782;28;20024;-84
2022/09/22 00:47:12;;;;;;;6.68;5.45;;;;;;;14.33;99.87;101241.16;5095799;28;20035;-84
2022/09/22 00:49:47;;;;;;;7.13;5.97;;;;;;;14.29;99.41;101234.41;5094079;28;20063;-84
2022/09/22 00:52:15;;;;;;;6.15;4.88;;;;;;;14.32;100.00;101238.66;5095676;28;20028;-84
2022/09/22 00:54:41;;;;;;;6.85;5.40;;;;;;;14.34;100.00;101228.84;5095580;28;20032;-84
2022/09/22 00:57:13;;;;;;;9.52;6.40;;;;;;;14.34;100.00;101239.41;5095531;28;20072;-86
2022/09/22 00:59:40;;;;;;;7.28;6.28;;;;;;;14.06;100.00;101236.88;5095317;28;20020;-84
2022/09/22 01:02:06;;;;;;;7.95;6.00;;;;;;;14.14;100.00;101224.91;5095506;28;20020;-84
2022/09/22 01:04:32;;;;;;;9.23;6.22;;;;;;;14.25;100.00;101227.66;5094216;28;20024;-84
2022/09/22 01:06:59;;;;;;;8.30;5.93;;;;;;;14.29;100.00;101224.69;5095414;28;20114;-84
2022/09/22 01:09:25;;;;;;;7.15;5.63;;;;;;;14.24;100.00;101221.53;5095152;28;20059;-84
2022/09/22 01:11:51;;;;;;;9.05;5.93;;;;;;;14.12;100.00;101222.41;5095211;28;20024;-84
2022/09/22 01:14:19;;;;;;;7.50;5.70;;;;;;;14.15;100.00;101216.91;5095348;28;20030;-84
2022/09/22 01:17:01;;;;;;;7.97;5.53;;;;;;;14.25;100.00;101214.44;5095114;28;20032;-84
2022/09/22 01:19:48;;;;;;;8.60;6.70;;;;;;;13.89;100.00;101209.00;5095502;28;20016;-84
2022/09/22 01:22:22;;;;;;;8.23;5.90;;;;;;;14.11;100.00;101209.31;5093768;28;20032;-85
2022/09/22 01:25:29;;;;;;;7.55;5.32;;;;;;;14.19;100.00;101210.44;5094898;28;20024;-84
2022/09/22 01:28:09;;;;;;;6.88;5.55;;;;;;;14.14;100.00;101204.66;5094745;28;20470;-84
2022/09/22 01:30:46;;;;;;;8.45;6.50;;;;;;;14.24;100.00;101195.13;5094992;28;20064;-85
2022/09/22 01:33:27;;;;;;;6.88;6.05;;;;;;;14.11;100.00;101198.75;5094918;28;20016;-84
2022/09/22 01:35:59;;;;;;;8.18;5.85;;;;;;;14.16;100.00;101197.47;5094660;28;20530;-86
2022/09/22 01:38:32;;;;;;;6.97;5.05;;;;;;;14.19;100.00;101191.94;5094494;28;20027;-85
2022/09/22 01:41:06;;;;;;;7.55;5.75;;;;;;;14.16;100.00;101196.59;5076954;28;20103;-84
2022/09/22 01:43:36;;;;;;;8.57;7.15;;;;;;;14.11;100.00;101196.94;5094652;28;20039;-84
2022/09/22 01:46:08;;;;;;;8.45;6.78;;;;;;;14.24;100.00;101183.72;5093299;28;20032;-84
2022/09/22 01:48:35;;;;;;;7.05;6.07;;;;;;;14.22;100.00;101190.91;5094532;28;20031;-85
2022/09/22 01:51:33;;;;;;;7.70;6.05;;;;;;;14.26;100.00;101180.00;5094375;28;20030;-85
2022/09/22 01:54:06;;;;;;;7.82;5.65;;;;;;;14.25;100.00;101182.75;5060191;28;20044;-85
2022/09/22 01:56:35;;;;;;;8.95;7.07;;;;;;;14.22;100.00;101180.34;5094490;28;20400;-85
2022/09/22 01:59:05;;;;;;;9.43;7.75;;;;;;;14.21;100.00;101182.13;5094366;28;20053;-85
2022/09/22 02:01:40;;;;;;;12.30;9.35;;;;;;;14.00;100.00;101181.00;5094279;28;20021;-85
2022/09/22 02:04:15;;;;;;;10.98;9.15;;;;;;;13.94;100.00;101178.78;5094320;28;20020;-85
2022/09/22 02:06:51;;;;;;;10.63;8.48;;;;;;;14.04;100.00;101166.63;5094077;28;20027;-85
2022/09/22 02:09:20;;;;;;;14.60;9.18;;;;;;;14.10;100.00;101168.84;5094030;28;20474;-85
2022/09/22 02:11:46;;;;;;;10.32;8.43;;;;;;;14.12;100.00;101166.94;5094266;28;20442;-85
2022/09/22 02:14:12;;;;;;;10.48;8.25;;;;;;;14.03;100.00;101162.31;5094030;28;20383;-85
2022/09/22 02:16:38;;;;;;;12.00;9.23;;;;;;;14.07;100.00;101161.97;5094117;28;20103;-85
2022/09/22 02:19:12;;;;;;;11.73;9.10;;;;;;;14.08;100.00;101162.84;5093826;28;20099;-86
2022/09/22 02:21:39;;;;;;;11.10;8.13;;;;;;;14.03;100.00;101154.38;5094059;28;20063;-85
2022/09/22 02:24:06;;;;;;;18.75;11.07;;;;;;;13.82;100.00;101149.69;5093932;28;20478;-85
2022/09/22 02:26:35;;;;;;;13.25;10.40;;;;;;;14.03;100.00;101149.09;5093406;28;20119;-85
2022/09/22 02:29:10;;;;;;;11.60;9.55;;;;;;;14.06;100.00;101147.09;5093961;28;20099;-85
2022/09/22 02:31:38;;;;;;;14.10;11.18;;;;;;;14.02;100.00;101147.41;5093748;28;20020;-85
2022/09/22 02:34:05;;;;;;;14.25;11.10;;;;;;;13.98;100.00;101135.38;5093660;28;20036;-85
2022/09/22 02:36:46;;;;;;;16.35;12.48;;;;;;;13.98;100.00;101135.38;5093407;28;20032;-85
2022/09/22 02:39:22;;;;;;;11.60;10.25;;;;;;;14.03;100.00;101138.53;5093557;28;20027;-85
2022/09/22 02:42:27;;;;;;;17.02;13.20;;;;;;;13.97;100.00;101128.41;5093589;28;20102;-85
2022/09/22 02:45:01;;;;;;;12.90;10.70;;;;;;;13.98;100.00;101124.81;5093378;28;20443;-85
2022/09/22 02:48:01;;;;;;;13.63;11.27;;;;;;;14.01;100.00;101125.44;5092619;28;20458;-85
2022/09/22 02:50:29;;;;;;;13.98;10.75;;;;;;;14.01;100.00;101128.09;5093390;28;20028;-85
2022/09/22 02:53:02;;;;;;;15.45;10.48;;;;;;;14.04;100.00;101122.59;5093183;28;20031;-85
2022/09/22 02:55:28;;;;;;;15.30;10.98;;;;;;;14.02;100.00;101118.34;5093387;28;20035;-85
2022/09/22 02:57:53;;;;;;;16.10;13.52;;;;;;;14.02;100.00;101121.00;5091846;28;20111;-85
2022/09/22 03:00:18;;;;;;;20.10;12.35;;;;;;;14.03;100.00;101112.16;5093370;28;20026;-85
2022/09/22 03:02:44;;;;;;;15.77;11.20;;;;;;;14.03;100.00;101106.88;5093470;28;20024;-85
2022/09/22 03:05:09;;;;;;;14.93;12.10;;;;;;;14.08;100.00;101110.03;5093435;28;20028;-85
2022/09/22 03:07:34;;;;;;;13.35;10.98;;;;;;;14.05;100.00;101105.78;5093386;28;20024;-84
2022/09/22 03:10:00;;;;;;;16.63;12.82;;;;;;;14.07;100.00;101113.59;5093237;28;20012;-85
2022/09/22 03:12:25;;;;;;;15.70;11.68;;;;;;;14.01;100.00;101111.41;5093131;28;20031;-85
2022/09/22 03:14:50;;;;;;;14.52;11.30;;;;;;;14.02;100.00;101107.78;5093206;28;20036;-85
2022/09/22 03:17:16;;;;;;;13.98;12.05;;;;;;;14.02;100.00;101110.44;5093347;28;20024;-85
2022/09/22 03:19:41;;;;;;;15.55;11.50;;;;;;;14.04;100.00;101113.81;5093298;28;20386;-85
2022/09/22 03:22:06;;;;;;;15.43;12.70;;;;;;;14.04;100.00;101111.16;5093336;28;20020;-85
2022/09/22 03:24:32;;;;;;;18.33;14.15;;;;;;;13.95;100.00;101110.03;5092973;28;20028;-85
2022/09/22 03:26:57;;;;;;;13.05;11.68;;;;;;;14.05;100.00;101104.94;5093235;28;20382;-85
2022/09/22 03:29:23;;;;;;;14.93;11.88;;;;;;;14.01;100.00;101104.31;5092831;28;20024;-85
2022/09/22 03:31:48;;;;;;;16.60;13.20;;;;;;;13.97;100.00;101105.50;5093096;28;20099;-85
2022/09/22 03:34:14;;;;;;;19.10;14.45;;;;;;;13.86;100.00;101106.28;5092912;28;20443;-85
2022/09/22 03:36:39;;;;;;;16.02;12.57;;;;;;;13.93;100.00;101104.03;5093111;28;20043;-84
2022/09/22 03:39:04;;;;;;;15.35;12.70;;;;;;;13.93;100.00;101103.19;5093103;28;20070;-85
2022/09/22 03:41:30;;;;;;;19.92;14.98;;;;;;;13.84;100.00;101100.25;5093068;28;20590;-85
2022/09/22 03:43:57;;;;;;;24.42;16.33;;;;;;;13.75;100.00;101102.69;5093087;28;20028;-85
2022/09/22 03:46:22;;;;;;;16.40;13.25;;;;;;;13.95;100.00;101099.47;5092846;28;20080;-85
2022/09/22 03:48:47;;;;;;;15.70;12.77;;;;;;;14.02;100.00;101100.75;5092816;28;20107;-85
2022/09/22 03:51:13;;;;;;;19.60;14.43;;;;;;;14.01;100.00;101095.56;5093390;28;20039;-85
2022/09/22 03:53:38;;;;;;;17.60;15.15;;;;;;;13.91;100.00;101097.19;5092750;28;20016;-85
2022/09/22 03:56:09;;;;;;;17.70;14.85;;;;;;;13.83;100.00;101101.19;5092517;28;20151;-85
2022/09/22 03:58:35;;;;;;;18.75;14.73;;;;;;;13.93;100.00;101090.00;5092250;28;20578;-85
2022/09/22 04:01:00;;;;;;;19.15;14.25;;;;;;;13.93;100.00;101095.28;5092540;28;20020;-85
2022/09/22 04:03:26;;;;;;;20.65;16.50;;;;;;;13.58;100.00;101096.78;5092622;28;20031;-85
2022/09/22 04:05:51;;;;;;;21.52;16.02;;;;;;;13.76;100.00;101089.38;5092774;28;20023;-85
2022/09/22 04:08:16;;;;;;;13.40;11.77;;;;;;;13.93;100.00;101090.00;5093068;28;20490;-85
2022/09/22 04:10:44;;;;;;;14.48;12.52;;;;;;;13.95;100.00;101081.00;5092794;28;20568;-85
2022/09/22 04:13:09;;;;;;;14.93;12.10;;;;;;;13.95;100.00;101083.66;5092526;28;20097;-85
2022/09/22 04:15:35;;;;;;;14.80;13.23;;;;;;;13.93;100.00;101084.72;5092773;28;21080;-85
2022/09/22 04:18:00;;;;;;;23.08;16.92;;;;;;;13.67;100.00;101080.31;5092919;28;20139;-85
2022/09/22 04:20:26;;;;;;;26.67;17.35;;;;;;;13.76;100.00;101076.16;5092541;28;20020;-85
2022/09/22 04:22:51;;;;;;;23.08;17.45;;;;;;;13.75;100.00;101071.88;5092438;28;20031;-85
2022/09/22 04:25:17;;;;;;;20.02;16.02;;;;;;;13.93;100.00;101076.78;5086897;28;20478;-85
2022/09/22 04:27:42;;;;;;;19.35;14.93;;;;;;;13.90;100.00;101075.19;5092360;28;20028;-85
2022/09/22 04:30:08;;;;;;;20.98;16.05;;;;;;;13.88;100.00;101071.81;5092746;28;20012;-85
2022/09/22 04:32:33;;;;;;;21.77;16.13;;;;;;;13.88;100.00;101077.97;5092437;28;20058;-85
2022/09/22 04:34:59;;;;;;;21.17;15.57;;;;;;;13.95;100.00;101070.44;5092431;28;20063;-85
2022/09/22 04:37:24;;;;;;;15.88;13.23;;;;;;;13.98;100.00;101066.72;5092417;28;20043;-85
2022/09/22 04:39:52;;;;;;;25.67;17.05;;;;;;;13.92;100.00;101067.16;5092371;28;20490;-85
2022/09/22 04:42:18;;;;;;;20.08;15.40;;;;;;;13.83;100.00;101071.31;5092452;28;20020;-85
2022/09/22 04:44:45;;;;;;;17.58;14.50;;;;;;;13.86;100.00;101077.22;5092312;28;20408;-85
2022/09/22 04:47:10;;;;;;;20.88;14.30;;;;;;;13.86;100.00;101074.59;5092681;28;20016;-85
2022/09/22 04:49:35;;;;;;;23.38;16.35;;;;;;;13.78;100.00;101081.34;5091903;28;20020;-85
2022/09/22 04:52:01;;;;;;;20.30;15.60;;;;;;;13.96;100.00;101073.91;5092131;28;20047;-85
2022/09/22 04:54:26;;;;;;;26.98;18.55;;;;;;;14.01;100.00;101074.44;5090772;28;20378;-85
2022/09/22 04:56:52;;;;;;;21.00;15.77;;;;;;;14.13;100.00;101078.84;5090820;28;20028;-85
2022/09/22 04:59:17;;;;;;;24.40;15.27;;;;;;;14.23;100.00;101063.16;5092069;28;20081;-85
2022/09/22 05:01:42;;;;;;;18.83;14.52;;;;;;;14.18;100.00;101068.78;5092161;28;20032;-85
2022/09/22 05:04:08;;;;;;;22.70;15.90;;;;;;;14.12;100.00;101069.25;5091898;28;20024;-85
2022/09/22 05:06:34;;;;;;;20.25;15.23;;;;;;;14.14;100.00;101071.75;5092123;28;20028;-85
2022/09/22 05:09:01;;;;;;;24.02;17.30;;;;;;;14.06;100.00;101064.41;5092002;28;20048;-85
2022/09/22 05:11:29;;;;;;;18.45;14.52;;;;;;;14.16;100.00;101068.06;5094510;28;20426;-85
2022/09/22 05:13:54;;;;;;;21.75;15.73;;;;;;;14.12;100.00;101069.25;5095617;28;20053;-85
2022/09/22 05:16:20;;;;;;;21.30;13.93;;;;;;;14.15;100.00;101069.00;5096024;28;20580;-86
2022/09/22 05:18:47;;;;;;;19.02;14.70;;;;;;;14.18;100.00;101074.06;5095745;28;20081;-85
2022/09/22 05:21:12;;;;;;;20.10;14.43;;;;;;;14.08;100.00;101067.78;5095971;28;20493;-85
2022/09/22 05:23:38;;;;;;;21.75;14.52;;;;;;;14.19;100.00;101070.47;5095511;28;20031;-85
2022/09/22 05:26:04;;;;;;;15.90;12.27;;;;;;;14.22;100.00;101062.34;5095519;28;20028;-86
2022/09/22 05:28:29;;;;;;;18.88;13.63;;;;;;;14.20;100.00;101055.47;5095322;28;20385;-85
2022/09/22 05:30:55;;;;;;;16.65;12.63;;;;;;;14.21;100.00;101054.50;5095515;28;20061;-85
2022/09/22 05:33:20;;;;;;;14.95;11.40;;;;;;;14.26;100.00;101044.47;5095151;28;20066;-85
2022/09/22 05:35:46;;;;;;;20.65;15.52;;;;;;;14.21;100.00;101047.44;5095151;28;20024;-86
2022/09/22 05:38:11;;;;;;;24.63;15.35;;;;;;;14.33;100.00;101042.22;5095048;28;20166;-85
2022/09/22 05:40:37;;;;;;;24.02;15.85;;;;;;;14.33;100.00;101042.22;5095118;28;20024;-85
2022/09/22 05:43:02;;;;;;;16.63;12.73;;;;;;;14.19;100.00;101044.06;5090774;28;20027;-85
2022/09/22 05:45:27;;;;;;;19.80;13.10;;;;;;;14.21;100.00;101044.78;5094462;28;20024;-85
2022/09/22 05:47:53;;;;;;;17.10;12.75;;;;;;;14.14;100.00;101043.56;5094553;28;20031;-85
2022/09/22 05:50:19;;;;;;;17.17;13.63;;;;;;;14.00;100.00;101041.06;5094654;28;20035;-85
2022/09/22 05:52:45;;;;;;;15.98;12.05;;;;;;;14.04;100.00;101034.59;5092971;28;20466;-85
2022/09/22 05:55:11;;;;;;;15.77;12.30;;;;;;;14.01;100.00;101046.22;5094304;28;20035;-85
2022/09/22 05:57:37;;;;;;;17.10;11.63;;;;;;;13.93;100.00;101043.31;5093456;28;20012;-85
2022/09/22 06:00:04;;;;;;;17.48;13.52;;;;;;;13.95;100.00;101035.28;5094272;28;20124;-89
2022/09/22 06:02:29;;;;;;;14.13;11.20;;;;;;;14.01;100.00;101040.94;5093935;28;20115;-85
2022/09/22 06:04:55;;;;;;;15.93;11.20;;;;;;;14.05;100.00;101036.31;5094126;28;20032;-85
2022/09/22 06:07:21;;;;;;;14.75;11.82;;;;;;;14.09;100.00;101037.75;5094135;28;20020;-85
2022/09/22 06:09:47;;;;;;;19.38;13.25;;;;;;;13.91;100.00;101033.81;5093846;28;20077;-85
2022/09/22 06:12:13;;;;;;;18.73;12.27;;;;;;;14.02;100.00;101033.88;5091904;28;20024;-86
2022/09/22 06:14:38;;;;;;;17.92;12.90;;;;;;;14.00;100.00;101034.00;5094154;28;20024;-85
2022/09/22 06:17:03;;;;;;;18.55;12.32;;;;;;;13.98;100.00;101037.69;5093805;28;20020;-85
2022/09/22 06:19:29;;;;;;;16.65;12.35;;;;;;;14.10;100.00;101034.19;5094005;28;20044;-85
2022/09/22 06:21:55;;;;;;;13.80;11.25;;;;;;;14.25;100.00;101035.69;5092896;28;20474;-86
2022/09/22 06:24:22;;;;;;;12.65;10.07;;;;;;;14.48;100.00;101030.50;5093753;28;20466;-85
2022/09/22 06:26:49;;;;;;;15.18;11.55;;;;;;;14.72;100.00;101027.03;5093535;28;20028;-84
2022/09/22 06:29:14;;;;;;;19.90;13.35;;;;;;;14.89;100.00;101026.59;5091778;28;20128;-85
2022/09/22 06:31:40;;;;;;;16.17;13.25;;;;;;;15.07;100.00;101025.16;5092852;28;20505;-85
2022/09/22 06:34:06;;;;;;;17.50;12.30;;;;;;;15.24;100.00;101017.72;5092479;28;20077;-86
2022/09/22 06:36:31;;;;;;;19.38;14.52;;;;;;;15.43;100.00;101020.59;5092649;28;20028;-85
2022/09/22 06:38:58;;;;;;;16.70;13.50;;;;;;;15.54;100.00;101022.44;5091237;28;20124;-86
2022/09/22 06:41:27;;;;;;;14.55;12.45;;;;;;;15.64;100.00;101015.44;5092460;28;20058;-86
2022/09/22 06:43:56;;;;;;;14.60;11.68;;;;;;;15.79;100.00;101020.50;5091895;28;20119;-86
2022/09/22 06:46:23;;;;;;;16.15;13.15;;;;;;;15.85;100.00;101020.81;5092816;28;20074;-85
2022/09/22 06:48:49;;;;;;;15.70;12.90;;;;;;;15.99;100.00;101016.22;5092799;28;20044;-86
2022/09/22 06:51:16;;;;;;;21.10;14.45;;;;;;;16.13;100.00;101012.47;5092650;28;20066;-85
2022/09/22 06:53:43;;;;;;;17.77;14.30;;;;;;;16.23;100.00;101010.72;5093599;28;20021;-85
2022/09/22 06:56:08;;;;;;;20.52;14.38;;;;;;;16.38;100.00;101011.28;5093252;28;20016;-85
2022/09/22 06:58:34;;;;;;;17.23;13.80;;;;;;;16.46;100.00;101012.31;5092625;28;20073;-86
2022/09/22 07:01:05;;;;;;;19.13;14.07;;;;;;;16.64;100.00;101006.47;5093262;28;20028;-86
2022/09/22 07:03:32;;;;;;;18.97;14.70;;;;;;;16.83;100.00;101011.09;5093433;28;20486;-86
2022/09/22 07:06:02;;;;;;;20.30;15.07;;;;;;;17.05;100.00;101013.59;5093737;28;20024;-85
2022/09/22 07:08:30;;;;;;;19.00;15.07;;;;;;;17.25;100.00;101001.25;5093176;28;20027;-86
2022/09/22 07:11:01;;;;;;;18.05;14.05;;;;;;;17.45;100.00;101006.63;5094941;28;20230;-85
2022/09/22 07:13:31;;;;;;;18.27;13.63;;;;;;;17.74;100.00;101008.56;5092324;28;20378;-86
2022/09/22 07:16:06;;;;;;;19.27;14.05;;;;;;;18.11;100.00;101008.78;5092857;28;20044;-85
2022/09/22 07:18:32;;;;;;;21.65;13.27;;;;;;;18.52;98.19;101009.50;5093209;28;20032;-86
2022/09/22 07:21:22;;;;;;;14.45;12.35;;;;;;;18.65;97.27;101014.50;5091812;28;20390;-86
2022/09/22 07:23:51;;;;;;;13.10;11.10;;;;;;;18.86;95.44;101010.84;5092960;28;20123;-86
2022/09/22 07:26:18;;;;;;;;;;;;;;;18.96;95.29;101015.19;5093562;28;20239;-86
2022/09/22 07:28:45;;;;;;;;;;;;;;;19.03;94.25;101015.44;5091652;28;19916;-86
2022/09/22 07:31:13;;;;;;;21.80;12.85;;;;;;;19.36;89.95;101015.88;5093561;28;19949;-86
2022/09/22 07:33:39;;;;;;;;;;;;;;;19.77;90.18;101016.44;5093512;28;20482;-87
2022/09/22 07:36:07;;;;;;;;;;;;;;;19.89;89.36;101015.22;5093272;28;19919;-86
2022/09/22 07:38:35;;;;;;;;;;;;;;;20.19;88.50;101019.34;5093269;28;19912;-86
2022/09/22 07:41:01;;;;;;;;;;;;;;;20.68;86.38;101015.47;5093627;28;20254;-86
2022/09/22 07:43:27;;;;;;;;;;;;;;;21.33;82.58;101018.53;5093297;28;19923;-86
2022/09/22 07:45:58;;;;;;;;;;;;;;;21.01;81.56;101016.53;5093380;28;19934;-86
2022/09/22 07:48:36;;;;;;;;;;;;;;;21.64;78.83;101014.50;5092092;28;19912;-86
2022/09/22 07:51:07;;;;;;;;;;;;;;;22.97;72.83;101002.75;5092999;28;19995;-86
2022/09/22 07:53:33;;;;;;;;;;;;;;;22.74;68.38;101007.97;5093145;28;19912;-86
2022/09/22 07:56:02;;;;;;;;;;;;;;;23.14;67.04;101008.09;5093087;28;19912;-86
2022/09/22 07:58:28;;;;;;;;;;;;;;;23.95;64.40;101006.06;5091640;28;19908;-87
2022/09/22 08:00:53;;;;;;;;;;;;;;;25.58;57.13;101005.56;5093232;28;19915;-87
2022/09/22 08:03:19;;;;;;;;;;;;;;;25.34;56.91;101012.09;5093255;28;20332;-86
2022/09/22 08:05:45;;;;;;;;;;;;;;;25.33;58.08;101008.53;5093060;28;19969;-86
2022/09/22 08:08:11;;;;;;;;;;;;;;;26.93;54.07;101016.59;5093235;28;19912;-87
2022/09/22 08:10:37;;;;;;;;;;;;;;;29.11;45.57;101002.97;5092940;28;20230;-87
2022/09/22 08:13:03;;;;;;;;;;;;;;;31.29;40.37;101004.41;5092955;28;20010;-86
2022/09/22 08:15:28;;;;;;;;;;;;;;;33.17;37.29;100995.84;5093119;28;19919;-87
2022/09/22 08:17:57;;;;;;;;;;;;;;;32.12;37.28;100999.34;5091594;28;20343;-87
2022/09/22 08:20:24;;;;;;;;;;;;;;;31.63;37.60;100994.78;5093198;28;20309;-88
2022/09/22 08:22:53;;;;;;;;;;;;;;;31.85;37.46;100997.00;5092052;28;20413;-88
2022/09/22 08:25:18;;;;;;;;;;;;;;;32.08;37.15;100993.56;5092164;28;19916;-88
2022/09/22 08:27:43;;;;;;;;;;;;;;;34.01;35.13;100993.63;5092306;28;19916;-88
2022/09/22 08:30:10;;;;;;;;;;;;;;;33.55;34.93;100991.72;5092605;28;20053;-88
2022/09/22 08:32:36;;;;;;;;;;;;;;;32.51;36.57;100987.00;5092513;28;19916;-88
2022/09/22 08:35:02;;;;;;;;;;;;;;;33.02;36.07;100992.78;5092106;28;20006;-89
2022/09/22 08:37:27;;;;;;;;;;;;;;;34.36;33.31;100974.34;5092135;28;19912;-88
2022/09/22 08:39:53;;;;;;;;;;;;;;;35.92;32.13;100974.13;5091974;28;19912;-89
2022/09/22 08:42:21;;;;;;;;;;;;;;;35.98;31.61;100966.78;5091065;28;19995;-89
2022/09/22 08:44:56;;;;;;;;;;;;;;;34.97;32.78;100968.94;5091849;28;19922;-89
2022/09/22 08:53:18;;;;;;;;;;;;;;;37.89;28.90;100960.06;5096210;28;19922;-90
2022/09/22 08:55:45;;;;;;;;;;;;;;;37.13;29.54;100960.72;5096149;28;19912;-89
2022/09/22 08:58:23;;;;;;;;;;;;;;;36.23;30.48;100953.34;5095985;28;19918;-89
2022/09/22 09:00:58;;;;;;;;;;;;;;;35.24;31.50;100951.84;5095974;28;19912;-89
2022/09/22 09:03:43;;;;;;;;;;;;;;;37.02;29.94;100951.63;5095848;28;19912;-89
2022/09/22 09:06:11;;;;;;;;;;;;;;;37.94;28.86;100940.06;5095310;28;20044;-89
2022/09/22 09:08:42;;;;;;;;;;;;;;;33.94;32.58;100947.47;5095641;28;19965;-89
2022/09/22 09:11:10;;;;;;;;;;;;;;;32.58;35.22;100944.25;5093876;28;20269;-88
2022/09/22 09:13:47;;;;;;;;;;;;;;;31.12;37.35;100952.63;5081238;28;20400;-89
2022/09/22 09:16:16;;;;;;;;;;;;;;;30.40;38.95;100945.03;5098114;28;19927;-88
2022/09/22 09:18:44;;;;;;;;;;;;;;;30.58;39.32;100944.25;5087335;28;19926;-88
2022/09/22 09:21:12;;;;;;;;;;;;;;;30.25;39.04;100953.50;5094454;28;19916;-88
2022/09/22 09:23:43;;;;;;;;;;;;;;;33.07;35.57;100943.09;5095445;28;20439;-88
2022/09/22 09:26:08;;;;;;;;;;;;;;;31.74;37.13;100936.19;5095052;28;19969;-89
2022/09/22 09:28:41;;;;;;;;;;;;;;;30.38;39.16;100949.03;5095330;28;19912;-89
2022/09/22 09:31:36;;;;;;;;;;;;;;;29.50;40.92;100947.09;5095079;28;19995;-88
2022/09/22 09:34:02;;;;;;;;;;;;;;;31.65;37.30;100942.19;5081008;28;19916;-89
2022/09/22 09:36:30;;;;;;;;;;;;;;;29.96;39.90;100936.00;5095545;28;19919;-89
2022/09/22 09:38:56;;;;;;;;;;;;;;;28.17;42.58;100937.41;5095007;28;19918;-89
2022/09/22 09:41:23;;;;;;;;;;;;;;;27.06;46.11;100936.66;5094245;28;19969;-89
2022/09/22 09:43:50;;;;;;;;;;;;;;;25.77;48.71;100938.72;5094793;28;19916;-90
2022/09/22 09:46:38;;;;;;;;;;;;;;;25.59;50.48;100948.06;5095096;28;19912;-88
2022/09/22 09:49:13;;;;;;;;;;;;;;;25.42;50.59;100927.81;5084231;28;19926;-88
2022/09/22 09:51:41;;;;;;;;;;;;;;;26.58;48.72;100938.41;5094278;28;20378;-88
2022/09/22 09:54:08;;;;;;;;;;;;;;;25.14;50.48;100931.19;5077008;28;19912;-88
2022/09/22 09:56:36;;;;;;;;;;;;;;;24.72;51.04;100935.34;5073771;28;20458;-88
2022/09/22 10:01:49;;;;;;;;;;;;;;;24.83;52.23;100936.75;5079358;28;20381;-87
2022/09/22 10:04:24;;;;;;;;;;;;;;;26.44;50.49;100926.72;5074275;28;20012;-88
2022/09/22 10:06:49;;;;;;;;;;;;;;;26.87;46.69;100932.81;5074974;28;20317;-89
2022/09/22 10:09:35;;;;;;;;;;;;;;;26.66;47.22;100916.75;5080176;28;19923;-88
2022/09/22 10:12:01;;;;;;;;;;;;;;;25.62;48.91;100923.47;5092358;28;19912;-88
2022/09/22 10:14:29;;;;;;;;;;;;;;;24.23;50.72;100928.59;5086480;28;19947;-88
2022/09/22 10:16:54;;;;;;;;;;;;;;;23.48;52.96;100932.78;5094197;28;19912;-88
2022/09/22 10:19:20;;;;;;;;;;;;;;;24.70;51.35;100935.53;5094086;28;20330;-88
2022/09/22 10:21:45;;;;;;;;;;;;;;;25.87;48.60;100926.63;5094103;28;20281;-87
2022/09/22 10:24:21;;;;;;;;;;;;;;;28.11;43.51;100913.94;5094184;28;19916;-86
2022/09/22 10:26:56;;;;;;;;;;;;;;;29.67;40.03;100907.66;5093002;28;20354;-87
2022/09/22 10:29:21;;;;;;;;;;;;;;;28.64;41.62;100922.03;5084558;28;20342;-88
2022/09/22 10:32:07;;;;;;;;;;;;;;;29.03;40.82;100915.66;5092515;28;20007;-88
2022/09/22 10:34:40;;;;;;;;;;;;;;;27.65;42.92;100913.66;5078528;28;19916;-88
2022/09/22 10:37:10;;;;;;;;;;;;;;;27.44;43.43;100906.53;5094312;28;19912;-88
2022/09/22 10:39:44;;;;;;;;;;;;;;;30.95;38.56;100900.09;5072348;28;20074;-88
2022/09/22 10:42:30;;;;;;;;;;;;;;;30.94;37.49;100906.56;5074193;28;19916;-88
2022/09/22 10:44:59;;;;;;;;;;;;;;;32.37;36.25;100902.16;5073663;28;19923;-88
2022/09/22 10:47:26;;;;;;;;;;;;;;;30.75;36.98;100897.59;5075096;28;19912;-88
2022/09/22 10:50:09;;;;;;;;;;;;;;;31.34;36.35;100897.91;5094011;28;20381;-89
2022/09/22 10:52:40;;;;;;;;;;;;;;;30.68;36.72;100889.53;5091328;28;20370;-88
2022/09/22 10:55:17;;;;;;;;;;;;;;;28.72;40.13;100910.97;5093574;28;20006;-88
2022/09/22 10:58:07;;;;;;;;;;;;;;;29.32;40.19;100896.44;5093786;28;19908;-87
2022/09/22 11:00:39;;;;;;;;;;;;;;;29.01;39.84;100900.69;5092138;28;19923;-87
2022/09/22 11:03:40;;;;;;;;;;;;;;;27.84;42.05;100895.00;5093675;28;20366;-87
2022/09/22 11:14:39;;;;;;;;;;;;;;;28.74;40.66;100887.28;5088751;28;19919;-87
2022/09/22 11:17:14;;;;;;;;;;;;;;;27.60;42.98;100883.75;5091894;28;19916;-87
2022/09/22 11:19:57;;;;;;;;;;;;;;;27.22;43.90;100889.66;5090974;28;20332;-87
2022/09/22 11:22:30;;;;;;;;;;;;;;;26.87;44.57;100886.19;5093157;28;19919;-87
2022/09/22 11:25:14;;;;;;;;;;;;;;;27.16;43.83;100878.88;5093167;28;19912;-87
2022/09/22 11:27:42;;;;;;;;;;;;;;;26.63;44.86;100877.56;5091861;28;20011;-86
2022/09/22 11:30:20;;;;;;;;;;;;;;;26.95;44.67;100875.25;5093003;28;19912;-87
2022/09/22 11:32:58;;;;;;;;;;;;;;;27.59;42.41;100875.91;5091946;28;19924;-87
2022/09/22 11:35:23;;;;;;;;;;;;;;;26.95;43.73;100869.03;5093047;28;19935;-87
2022/09/22 11:38:00;;;;;;;;;;;;;;;26.35;44.41;100869.50;5092824;28;19912;-87
2022/09/22 11:40:38;;;;;;;;;;;;;;;26.82;44.23;100867.94;5092692;28;19905;-87
2022/09/22 11:43:03;;;;;;;;;;;;;;;27.11;44.01;100868.66;5091237;28;19951;-87
2022/09/22 11:45:28;;;;;;;;;;;;;;;26.89;44.35;100860.69;5090299;28;19948;-87
2022/09/22 11:48:07;;;;;;;;;;;;;;;28.84;42.06;100857.94;5092521;28;19919;-87
2022/09/22 11:50:41;;;;;;;;;;;;;;;29.99;39.92;100854.34;5092695;28;19965;-88
2022/09/22 11:53:06;;;;;;;;;;;;;;;28.46;40.37;100855.94;5091673;28;19920;-87
2022/09/22 11:55:35;;;;;;;;;;;;;;;27.78;41.55;100848.09;5091260;28;19916;-87
2022/09/22 11:58:04;;;;;;;;;;;;;;;26.94;43.80;100856.59;5091668;28;19969;-87
2022/09/22 12:00:37;;;;;;;;;;;;;;;27.46;43.65;100849.72;5091983;28;19934;-87
2022/09/22 12:03:10;;;;;;;;;;;;;;;27.18;43.64;100845.28;5081707;28;19981;-87